createdAt,value
2019-05-03T00:01:52.821Z,100.00
2019-05-03T00:07:11.939Z,100.00
2019-05-03T00:10:22.242Z,100.00
2019-05-03T00:12:52.280Z,100.00
2019-05-03T00:15:40.340Z,100.00
2019-05-03T00:18:09.071Z,100.00
2019-05-03T00:20:37.721Z,100.00
2019-05-03T00:23:06.395Z,100.00
2019-05-03T00:25:34.920Z,100.00
2019-05-03T00:28:03.557Z,100.00
2019-05-03T00:30:32.235Z,100.00
2019-05-03T00:33:02.827Z,100.00
2019-05-03T00:35:51.943Z,100.00
2019-05-03T00:38:21.851Z,100.00
2019-05-03T00:40:52.385Z,100.00
2019-05-03T00:43:22.249Z,100.00
2019-05-03T00:45:52.086Z,100.00
2019-05-03T00:48:21.956Z,100.00
2019-05-03T00:50:51.796Z,100.00
2019-05-03T00:53:22.415Z,100.00
2019-05-03T00:55:52.472Z,100.00
2019-05-03T00:58:22.605Z,100.00
2019-05-03T01:00:52.483Z,100.00
2019-05-03T01:03:22.092Z,100.00
2019-05-03T01:05:52.948Z,100.00
2019-05-03T01:08:22.176Z,100.00
2019-05-03T01:10:51.648Z,100.00
2019-05-03T01:13:22.229Z,100.00
2019-05-03T01:18:32.378Z,100.00
2019-05-03T01:21:02.306Z,100.00
2019-05-03T01:23:32.589Z,100.00
2019-05-03T01:26:02.452Z,100.00
2019-05-03T01:28:32.465Z,100.00
2019-05-03T01:31:02.961Z,100.00
2019-05-03T01:33:32.366Z,100.00
2019-05-03T01:36:02.676Z,100.00
2019-05-03T01:38:32.531Z,100.00
2019-05-03T01:41:01.826Z,100.00
2019-05-03T01:43:32.194Z,100.00
2019-05-03T01:46:02.686Z,100.00
2019-05-03T01:48:52.139Z,100.00
2019-05-03T01:51:41.962Z,100.00
2019-05-03T01:54:12.192Z,100.00
2019-05-03T01:56:49.999Z,100.00
2019-05-03T01:59:12.476Z,100.00
2019-05-03T02:02:02.279Z,100.00
2019-05-03T02:04:50.633Z,100.00
2019-05-03T02:07:19.349Z,100.00
2019-05-03T02:10:07.587Z,100.00
2019-05-03T02:12:57.012Z,100.00
2019-05-03T02:15:25.694Z,100.00
2019-05-03T02:17:54.382Z,100.00
2019-05-03T02:20:22.935Z,100.00
2019-05-03T02:22:52.261Z,100.00
2019-05-03T02:25:22.559Z,100.00
2019-05-03T02:27:52.691Z,100.00
2019-05-03T02:30:24.741Z,100.00
2019-05-03T02:32:53.359Z,100.00
2019-05-03T02:35:22.839Z,100.00
2019-05-03T02:38:12.991Z,100.00
2019-05-03T02:41:03.261Z,100.00
2019-05-03T02:43:51.590Z,100.00
2019-05-03T02:46:39.506Z,100.00
2019-05-03T02:49:27.671Z,100.00
2019-05-03T02:51:56.957Z,100.00
2019-05-03T02:54:46.495Z,100.00
2019-05-03T03:00:45.582Z,100.00
2019-05-03T03:06:10.932Z,100.00
2019-05-03T03:09:19.651Z,100.00
2019-05-03T03:12:28.087Z,100.00
2019-05-03T03:15:36.556Z,100.00
2019-05-03T03:18:45.739Z,100.00
2019-05-03T03:21:36.089Z,100.00
2019-05-03T03:24:46.007Z,100.00
2019-05-03T03:27:55.670Z,100.00
2019-05-03T03:31:02.984Z,100.00
2019-05-03T03:33:32.587Z,100.00
2019-05-03T03:36:44.715Z,100.00
2019-05-03T03:42:07.568Z,100.00
2019-05-03T03:44:57.389Z,100.00
2019-05-03T03:48:05.849Z,100.00
2019-05-03T03:51:15.556Z,100.00
2019-05-03T03:54:26.023Z,100.00
2019-05-03T03:57:35.710Z,100.00
2019-05-03T04:00:25.754Z,100.00
2019-05-03T04:02:55.780Z,100.00
2019-05-03T04:05:25.609Z,100.00
2019-05-03T04:08:16.497Z,100.00
2019-05-03T04:10:46.376Z,100.00
2019-05-03T04:13:55.973Z,100.00
2019-05-03T04:16:45.454Z,100.00
2019-05-03T04:19:36.165Z,100.00
2019-05-03T04:22:05.906Z,100.00
2019-05-03T04:25:15.634Z,100.00
2019-05-03T04:27:45.994Z,100.00
2019-05-03T04:30:16.506Z,100.00
2019-05-03T04:32:46.257Z,100.00
2019-05-03T04:35:16.312Z,100.00
2019-05-03T04:37:45.822Z,100.00
2019-05-03T04:40:15.600Z,100.00
2019-05-03T04:42:46.458Z,100.00
2019-05-03T04:45:36.616Z,100.00
2019-05-03T04:51:00.579Z,100.00
2019-05-03T04:56:46.394Z,100.00
2019-05-03T04:59:15.952Z,100.00
2019-05-03T05:02:26.236Z,100.00
2019-05-03T05:04:55.708Z,100.00
2019-05-03T05:07:26.309Z,100.00
2019-05-03T05:09:56.486Z,100.00
2019-05-03T05:12:26.361Z,100.00
2019-05-03T05:14:56.434Z,100.00
2019-05-03T05:20:45.361Z,100.00
2019-05-03T05:23:15.230Z,100.00
2019-05-03T05:26:02.997Z,100.00
2019-05-03T05:29:11.440Z,100.00
2019-05-03T05:31:40.153Z,100.00
2019-05-03T05:34:09.061Z,100.00
2019-05-03T05:36:37.660Z,100.00
2019-05-03T05:39:46.126Z,100.00
2019-05-03T05:42:15.000Z,99.70
2019-05-03T05:44:45.396Z,99.55
2019-05-03T05:47:34.543Z,99.84
2019-05-03T05:52:58.046Z,96.89
2019-05-03T05:55:45.791Z,97.77
2019-05-03T06:03:25.521Z,98.25
2019-05-03T06:09:02.532Z,96.95
2019-05-03T06:11:50.346Z,97.67
2019-05-03T06:17:27.368Z,98.85
2019-05-03T06:20:15.600Z,97.45
2019-05-03T06:23:05.217Z,97.54
2019-05-03T06:33:34.776Z,96.55
2019-05-03T06:36:44.604Z,97.65
2019-05-03T06:39:15.077Z,98.97
2019-05-03T06:41:44.532Z,98.81
2019-05-03T06:44:14.466Z,98.75
2019-05-03T06:49:34.591Z,100.00
2019-05-03T06:55:14.358Z,99.14
2019-05-03T07:11:05.246Z,99.40
2019-05-03T07:13:34.567Z,98.17
2019-05-03T07:16:04.761Z,98.56
2019-05-03T07:18:35.281Z,98.88
2019-05-03T07:21:05.164Z,98.94
2019-05-03T07:23:34.976Z,99.16
2019-05-03T07:26:05.345Z,99.05
2019-05-03T07:28:46.477Z,98.79
2019-05-03T07:31:05.053Z,95.83
2019-05-03T07:36:09.122Z,96.13
2019-05-03T07:38:37.682Z,97.03
2019-05-03T07:41:06.332Z,97.11
2019-05-03T07:43:36.061Z,97.48
2019-05-03T07:46:45.283Z,95.50
2019-05-03T07:49:15.345Z,96.53
2019-05-03T07:51:44.886Z,98.07
2019-05-03T07:54:15.710Z,98.13
2019-05-03T07:59:20.419Z,98.91
2019-05-03T08:04:38.210Z,94.75
2019-05-03T08:07:19.307Z,94.46
2019-05-03T08:09:37.233Z,95.28
2019-05-03T08:12:05.920Z,95.52
2019-05-03T08:14:35.699Z,95.23
2019-05-03T08:17:05.204Z,93.07
2019-05-03T08:19:35.912Z,91.70
2019-05-03T08:22:05.555Z,92.25
2019-05-03T08:24:34.725Z,93.04
2019-05-03T08:27:05.162Z,93.55
2019-05-03T08:29:35.271Z,93.07
2019-05-03T08:32:24.643Z,89.48
2019-05-03T08:35:12.393Z,87.94
2019-05-03T08:42:56.121Z,85.59
2019-05-03T08:45:25.575Z,85.32
2019-05-03T08:48:35.435Z,76.19
2019-05-03T08:51:05.385Z,74.97
2019-05-03T08:53:35.786Z,75.56
2019-05-03T08:56:05.264Z,78.56
2019-05-03T08:58:34.958Z,77.03
2019-05-03T09:03:52.802Z,73.38
2019-05-03T09:06:21.441Z,75.65
2019-05-03T09:08:50.125Z,73.67
2019-05-03T09:11:30.601Z,73.44
2019-05-03T09:14:08.296Z,75.37
2019-05-03T09:16:37.058Z,76.98
2019-05-03T09:19:05.848Z,76.86
2019-05-03T09:21:34.810Z,76.17
2019-05-03T09:24:04.830Z,68.01
2019-05-03T09:26:34.881Z,69.55
2019-05-03T09:29:05.523Z,69.04
2019-05-03T09:31:35.242Z,70.45
2019-05-03T09:34:08.013Z,67.71
2019-05-03T09:36:35.145Z,67.70
2019-05-03T09:44:38.013Z,69.85
2019-05-03T09:47:25.930Z,71.31
2019-05-03T09:49:55.841Z,75.38
2019-05-03T09:52:25.241Z,74.17
2019-05-03T09:57:30.867Z,73.19
2019-05-03T10:00:00.261Z,68.69
2019-05-03T10:02:30.005Z,67.79
2019-05-03T10:04:58.622Z,72.04
2019-05-03T10:07:27.292Z,73.52
2019-05-03T10:09:55.971Z,72.52
2019-05-03T10:15:54.934Z,69.98
2019-05-03T10:18:25.464Z,71.28
2019-05-03T10:20:56.148Z,70.13
2019-05-03T10:23:45.228Z,71.58
2019-05-03T10:26:14.929Z,71.04
2019-05-03T10:28:44.694Z,77.48
2019-05-03T10:31:13.509Z,73.10
2019-05-03T10:34:01.307Z,72.71
2019-05-03T10:36:30.065Z,71.55
2019-05-03T10:39:18.029Z,73.20
2019-05-03T10:41:46.648Z,75.07
2019-05-03T10:44:15.329Z,75.56
2019-05-03T10:47:05.378Z,74.63
2019-05-03T10:49:35.210Z,71.84
2019-05-03T10:54:55.739Z,70.01
2019-05-03T11:00:53.509Z,61.94
2019-05-03T11:03:23.177Z,62.56
2019-05-03T11:05:51.776Z,61.75
2019-05-03T11:08:20.451Z,61.76
2019-05-03T11:10:49.112Z,64.73
2019-05-03T11:13:17.747Z,62.11
2019-05-03T11:15:46.436Z,63.80
2019-05-03T11:18:15.120Z,61.07
2019-05-03T11:20:45.285Z,58.15
2019-05-03T11:23:14.594Z,58.91
2019-05-03T11:25:45.315Z,57.25
2019-05-03T11:28:35.396Z,60.83
2019-05-03T11:31:24.858Z,62.95
2019-05-03T11:36:48.617Z,64.33
2019-05-03T11:39:17.330Z,64.23
2019-05-03T11:42:05.077Z,67.72
2019-05-03T11:44:52.760Z,67.49
2019-05-03T11:47:21.510Z,66.52
2019-05-03T11:49:50.075Z,59.18
2019-05-03T11:52:18.749Z,62.30
2019-05-03T11:54:47.453Z,62.86
2019-05-03T11:57:35.779Z,63.97
2019-05-03T12:00:45.116Z,65.67
2019-05-03T12:08:29.641Z,67.41
2019-05-03T12:11:01.474Z,67.38
2019-05-03T12:13:47.835Z,66.95
2019-05-03T12:16:24.025Z,67.03
2019-05-03T12:18:53.441Z,66.04
2019-05-03T12:21:18.679Z,63.46
2019-05-03T12:23:48.380Z,63.49
2019-05-03T12:26:18.779Z,64.23
2019-05-03T12:28:48.409Z,61.91
2019-05-03T12:31:29.435Z,57.82
2019-05-03T12:33:47.444Z,57.63
2019-05-03T12:36:16.146Z,58.98
2019-05-03T12:38:44.774Z,59.93
2019-05-03T12:41:15.043Z,60.83
2019-05-03T12:43:43.796Z,62.12
2019-05-03T12:46:31.700Z,63.24
2019-05-03T12:49:00.391Z,62.71
2019-05-03T12:51:29.030Z,64.82
2019-05-03T12:53:57.664Z,64.08
2019-05-03T12:56:32.570Z,63.94
2019-05-03T13:02:05.026Z,63.32
2019-05-03T13:04:52.786Z,63.13
2019-05-03T13:07:40.610Z,58.61
2019-05-03T13:10:49.082Z,58.70
2019-05-03T13:13:17.842Z,58.40
2019-05-03T13:15:46.487Z,55.43
2019-05-03T13:18:15.656Z,54.69
2019-05-03T13:20:45.746Z,56.17
2019-05-03T13:23:14.528Z,52.88
2019-05-03T13:28:34.093Z,51.98
2019-05-03T13:31:02.715Z,53.09
2019-05-03T13:36:10.806Z,54.08
2019-05-03T13:38:39.374Z,51.33
2019-05-03T13:41:08.063Z,49.17
2019-05-03T13:43:36.703Z,48.07
2019-05-03T13:46:24.777Z,49.02
2019-05-03T13:48:55.473Z,49.39
2019-05-03T13:51:25.305Z,49.28
2019-05-03T13:54:14.930Z,46.93
2019-05-03T13:56:43.968Z,47.54
2019-05-03T13:59:18.980Z,48.84
2019-05-03T14:01:44.726Z,47.48
2019-05-03T14:04:14.804Z,48.71
2019-05-03T14:06:44.697Z,44.02
2019-05-03T14:09:14.336Z,43.90
2019-05-03T14:11:44.823Z,47.73
2019-05-03T14:14:15.282Z,46.86
2019-05-03T14:25:32.401Z,51.30
2019-05-03T14:28:01.090Z,53.44
2019-05-03T14:30:29.778Z,49.35
2019-05-03T14:32:58.357Z,50.43
2019-05-03T14:35:46.324Z,48.16
2019-05-03T14:38:15.254Z,47.36
2019-05-03T14:40:47.328Z,48.26
2019-05-03T14:43:15.684Z,49.02
2019-05-03T14:45:44.330Z,50.70
2019-05-03T14:48:15.083Z,50.03
2019-05-03T14:50:45.424Z,49.12
2019-05-03T14:53:14.794Z,47.09
2019-05-03T14:56:05.051Z,45.42
2019-05-03T14:58:53.086Z,46.02
2019-05-03T15:01:40.865Z,47.29
2019-05-03T15:04:09.514Z,48.20
2019-05-03T15:06:38.150Z,45.84
2019-05-03T15:09:46.795Z,47.50
2019-05-03T15:12:15.384Z,49.29
2019-05-03T15:14:45.136Z,48.28
2019-05-03T15:17:14.373Z,47.16
2019-05-03T15:19:45.219Z,46.14
2019-05-03T15:22:14.669Z,46.09
2019-05-03T15:24:45.091Z,48.80
2019-05-03T15:27:14.448Z,48.25
2019-05-03T15:29:44.834Z,49.88
2019-05-03T15:32:15.465Z,49.26
2019-05-03T15:34:44.642Z,49.23
2019-05-03T15:37:14.860Z,49.44
2019-05-03T15:39:45.261Z,51.75
2019-05-03T15:45:45.080Z,52.61
2019-05-03T15:48:35.168Z,51.07
2019-05-03T15:51:04.794Z,51.42
2019-05-03T15:53:35.322Z,49.82
2019-05-03T15:56:05.448Z,48.95
2019-05-03T15:58:35.450Z,49.13
2019-05-03T16:01:04.670Z,50.12
2019-05-03T16:03:35.744Z,50.70
2019-05-03T16:06:05.338Z,51.33
2019-05-03T16:08:34.017Z,51.99
2019-05-03T16:11:02.703Z,52.37
2019-05-03T16:13:31.265Z,53.42
2019-05-03T16:15:59.947Z,52.29
2019-05-03T16:18:28.593Z,53.13
2019-05-03T16:20:57.274Z,52.69
2019-05-03T16:23:25.895Z,51.27
2019-05-03T16:26:14.305Z,52.23
2019-05-03T16:29:04.703Z,53.22
2019-05-03T16:31:34.417Z,50.76
2019-05-03T16:34:04.394Z,51.91
2019-05-03T16:36:36.753Z,53.17
2019-05-03T16:39:45.334Z,52.93
2019-05-03T16:42:15.544Z,53.79
2019-05-03T16:44:58.161Z,53.65
2019-05-03T16:47:26.888Z,54.56
2019-05-03T16:49:55.433Z,54.94
2019-05-03T16:55:19.045Z,55.74
2019-05-03T16:57:47.691Z,56.14
2019-05-03T17:00:56.227Z,57.37
2019-05-03T17:06:52.802Z,58.32
2019-05-03T17:09:40.556Z,59.52
2019-05-03T17:14:44.786Z,61.22
2019-05-03T17:17:14.847Z,61.62
2019-05-03T17:19:44.734Z,61.57
2019-05-03T17:22:17.233Z,63.51
2019-05-03T17:25:06.533Z,63.17
2019-05-03T17:27:35.505Z,62.19
2019-05-03T17:30:44.579Z,62.62
2019-05-03T17:33:13.421Z,62.12
2019-05-03T17:35:42.121Z,62.56
2019-05-03T17:38:10.993Z,63.28
2019-05-03T17:40:58.761Z,65.77
2019-05-03T17:46:16.624Z,65.28
2019-05-03T17:48:45.376Z,62.55
2019-05-03T17:54:08.792Z,62.75
2019-05-03T17:56:56.585Z,62.76
2019-05-03T17:59:44.522Z,63.73
2019-05-03T18:02:32.314Z,62.50
2019-05-03T18:05:20.782Z,63.56
2019-05-03T18:08:08.771Z,63.75
2019-05-03T18:13:14.281Z,64.99
2019-05-03T18:15:44.841Z,65.61
2019-05-03T18:18:13.274Z,66.21
2019-05-03T18:20:41.892Z,66.42
2019-05-03T18:23:10.527Z,66.84
2019-05-03T18:25:39.204Z,66.19
2019-05-03T18:28:07.838Z,67.02
2019-05-03T18:30:36.450Z,68.18
2019-05-03T18:33:05.134Z,67.15
2019-05-03T18:35:33.771Z,67.67
2019-05-03T18:38:02.431Z,68.01
2019-05-03T18:46:14.776Z,69.11
2019-05-03T18:48:44.549Z,68.88
2019-05-03T18:51:14.761Z,69.92
2019-05-03T18:53:45.050Z,69.83
2019-05-03T18:56:14.818Z,70.21
2019-05-03T18:58:45.007Z,70.30
2019-05-03T19:01:14.831Z,71.43
2019-05-03T19:06:34.652Z,72.24
2019-05-03T19:12:31.185Z,76.37
2019-05-03T19:18:15.419Z,73.37
2019-05-03T19:23:20.089Z,76.59
2019-05-03T19:25:49.662Z,75.67
2019-05-03T19:28:19.098Z,77.93
2019-05-03T19:30:47.946Z,78.26
2019-05-03T19:33:16.517Z,78.08
2019-05-03T19:35:45.210Z,78.70
2019-05-03T19:38:15.218Z,78.84
2019-05-03T19:40:45.295Z,80.14
2019-05-03T19:43:15.232Z,79.73
2019-05-03T19:45:45.115Z,79.40
2019-05-03T19:48:14.763Z,79.45
2019-05-03T19:50:44.582Z,80.03
2019-05-03T19:55:50.682Z,79.20
2019-05-03T19:58:35.350Z,79.58
2019-05-03T20:01:25.010Z,79.85
2019-05-03T20:11:46.074Z,78.79
2019-05-03T20:14:14.996Z,78.93
2019-05-03T20:16:44.972Z,80.28
2019-05-03T20:19:18.825Z,81.05
2019-05-03T20:22:05.178Z,82.45
2019-05-03T20:24:33.974Z,81.29
2019-05-03T20:27:21.924Z,82.28
2019-05-03T20:29:50.614Z,81.97
2019-05-03T20:32:19.254Z,81.97
2019-05-03T20:34:48.045Z,82.12
2019-05-03T20:37:16.740Z,83.28
2019-05-03T20:39:45.316Z,83.31
2019-05-03T20:50:22.025Z,81.15
2019-05-03T20:52:50.555Z,82.15
2019-05-03T20:55:38.506Z,82.50
2019-05-03T20:58:08.662Z,82.85
2019-05-03T21:00:37.460Z,83.41
2019-05-03T21:03:06.128Z,83.73
2019-05-03T21:05:37.367Z,85.26
2019-05-03T21:08:05.663Z,85.52
2019-05-03T21:10:35.668Z,85.68
2019-05-03T21:13:05.759Z,84.09
2019-05-03T21:15:53.864Z,83.15
2019-05-03T21:18:41.593Z,81.59
2019-05-03T21:21:29.323Z,82.51
2019-05-03T21:26:34.608Z,82.72
2019-05-03T21:29:04.754Z,82.61
2019-05-03T21:31:35.236Z,83.33
2019-05-03T21:34:05.655Z,83.26
2019-05-03T21:36:34.886Z,84.25
2019-05-03T21:39:26.717Z,84.45
2019-05-03T21:45:49.335Z,85.00
2019-05-03T21:48:37.094Z,85.48
2019-05-03T21:51:05.850Z,86.01
2019-05-03T21:53:34.572Z,86.36
2019-05-03T21:56:03.118Z,86.61
2019-05-03T21:58:31.622Z,86.50
2019-05-03T22:03:35.599Z,86.47
2019-05-03T22:06:04.230Z,86.88
2019-05-03T22:08:34.925Z,87.68
2019-05-03T22:11:44.687Z,87.05
2019-05-03T22:14:54.406Z,86.71
2019-05-03T22:17:41.863Z,86.72
2019-05-03T22:23:37.814Z,85.15
2019-05-03T22:29:17.198Z,82.25
2019-05-03T22:31:45.936Z,82.66
2019-05-03T22:34:34.812Z,83.74
2019-05-03T22:37:04.632Z,83.82
2019-05-03T22:39:33.291Z,83.41
2019-05-03T22:42:04.381Z,82.79
2019-05-03T22:44:33.111Z,81.84
2019-05-03T22:47:01.791Z,82.18
2019-05-03T22:49:30.413Z,82.87
2019-05-03T22:51:59.091Z,82.39
2019-05-03T22:54:27.959Z,81.41
2019-05-03T22:56:56.924Z,81.83
2019-05-03T22:59:25.559Z,82.85
2019-05-03T23:01:54.676Z,83.93
2019-05-03T23:04:25.264Z,84.73
2019-05-03T23:06:55.682Z,84.23
2019-05-03T23:09:25.371Z,85.31
2019-05-03T23:11:55.309Z,85.56
2019-05-03T23:17:18.605Z,85.47
2019-05-03T23:22:36.484Z,84.25
2019-05-03T23:25:25.012Z,85.91
2019-05-03T23:27:55.160Z,86.05
2019-05-03T23:30:25.117Z,86.69
2019-05-03T23:32:54.742Z,87.18
2019-05-03T23:35:24.635Z,87.42
2019-05-03T23:37:54.458Z,86.05
2019-05-03T23:40:23.125Z,85.86
2019-05-03T23:42:51.770Z,86.25
2019-05-03T23:45:20.431Z,86.50
2019-05-03T23:50:28.459Z,86.24
2019-05-03T23:52:57.119Z,86.00
2019-05-03T23:58:14.868Z,86.21
